sensor_id;sensor_type;location;lat;lon;timestamp;P1;durP1;ratioP1;P2;durP2;ratioP2
25199;SDS011;33094;48.782;9.162;2022-07-06T00:01:19;5.30;;;3.00;;
25199;SDS011;33094;48.782;9.162;2022-07-06T00:03:45;3.00;;;2.50;;
25199;SDS011;33094;48.782;9.162;2022-07-06T00:06:11;4.68;;;2.90;;
25199;SDS011;33094;48.782;9.162;2022-07-06T00:08:37;5.30;;;2.35;;
25199;SDS011;33094;48.782;9.162;2022-07-06T00:11:03;5.87;;;2.47;;
25199;SDS011;33094;48.782;9.162;2022-07-06T00:13:29;3.20;;;2.30;;
25199;SDS011;33094;48.782;9.162;2022-07-06T00:15:54;8.05;;;2.30;;
25199;SDS011;33094;48.782;9.162;2022-07-06T00:18:20;8.45;;;2.60;;
25199;SDS011;33094;48.782;9.162;2022-07-06T00:20:46;5.72;;;2.50;;
25199;SDS011;33094;48.782;9.162;2022-07-06T00:23:11;4.75;;;2.58;;
25199;SDS011;33094;48.782;9.162;2022-07-06T00:25:37;6.90;;;2.50;;
25199;SDS011;33094;48.782;9.162;2022-07-06T00:28:03;2.53;;;2.33;;
25199;SDS011;33094;48.782;9.162;2022-07-06T00:30:29;5.53;;;2.60;;
25199;SDS011;33094;48.782;9.162;2022-07-06T00:32:54;5.80;;;2.80;;
25199;SDS011;33094;48.782;9.162;2022-07-06T00:35:20;5.87;;;2.60;;
25199;SDS011;33094;48.782;9.162;2022-07-06T00:37:46;10.45;;;2.83;;
25199;SDS011;33094;48.782;9.162;2022-07-06T00:40:11;5.27;;;2.97;;
25199;SDS011;33094;48.782;9.162;2022-07-06T00:42:40;4.70;;;2.85;;
25199;SDS011;33094;48.782;9.162;2022-07-06T00:45:11;6.90;;;2.80;;
25199;SDS011;33094;48.782;9.162;2022-07-06T00:47:38;4.82;;;2.60;;
25199;SDS011;33094;48.782;9.162;2022-07-06T00:50:05;4.75;;;2.50;;
25199;SDS011;33094;48.782;9.162;2022-07-06T00:52:42;3.10;;;2.42;;
25199;SDS011;33094;48.782;9.162;2022-07-06T00:55:10;6.07;;;2.90;;
25199;SDS011;33094;48.782;9.162;2022-07-06T00:57:37;3.47;;;2.65;;
25199;SDS011;33094;48.782;9.162;2022-07-06T01:02:33;3.88;;;2.90;;
25199;SDS011;33094;48.782;9.162;2022-07-06T01:05:00;3.50;;;2.85;;
25199;SDS011;33094;48.782;9.162;2022-07-06T01:07:26;4.18;;;2.90;;
25199;SDS011;33094;48.782;9.162;2022-07-06T01:09:53;5.03;;;3.03;;
25199;SDS011;33094;48.782;9.162;2022-07-06T01:12:19;4.70;;;3.05;;
25199;SDS011;33094;48.782;9.162;2022-07-06T01:14:45;4.18;;;2.92;;
25199;SDS011;33094;48.782;9.162;2022-07-06T01:17:11;2.75;;;2.30;;
25199;SDS011;33094;48.782;9.162;2022-07-06T01:19:38;6.13;;;2.95;;
25199;SDS011;33094;48.782;9.162;2022-07-06T01:22:04;6.70;;;2.67;;
25199;SDS011;33094;48.782;9.162;2022-07-06T01:24:30;5.15;;;2.75;;
25199;SDS011;33094;48.782;9.162;2022-07-06T01:26:55;3.90;;;2.35;;
25199;SDS011;33094;48.782;9.162;2022-07-06T01:29:22;3.38;;;2.67;;
25199;SDS011;33094;48.782;9.162;2022-07-06T01:31:48;3.05;;;2.10;;
25199;SDS011;33094;48.782;9.162;2022-07-06T01:34:15;3.83;;;2.50;;
25199;SDS011;33094;48.782;9.162;2022-07-06T01:39:08;3.58;;;2.60;;
25199;SDS011;33094;48.782;9.162;2022-07-06T01:41:34;2.92;;;2.10;;
25199;SDS011;33094;48.782;9.162;2022-07-06T01:44:01;3.05;;;2.35;;
25199;SDS011;33094;48.782;9.162;2022-07-06T01:46:27;3.42;;;2.67;;
25199;SDS011;33094;48.782;9.162;2022-07-06T01:48:53;4.80;;;2.55;;
25199;SDS011;33094;48.782;9.162;2022-07-06T01:51:19;7.88;;;3.13;;
25199;SDS011;33094;48.782;9.162;2022-07-06T01:53:45;2.63;;;2.30;;
25199;SDS011;33094;48.782;9.162;2022-07-06T01:56:10;2.83;;;2.47;;
25199;SDS011;33094;48.782;9.162;2022-07-06T01:58:36;5.00;;;2.83;;
25199;SDS011;33094;48.782;9.162;2022-07-06T02:01:10;4.40;;;2.33;;
25199;SDS011;33094;48.782;9.162;2022-07-06T02:03:37;3.42;;;2.45;;
25199;SDS011;33094;48.782;9.162;2022-07-06T02:06:03;6.38;;;2.67;;
25199;SDS011;33094;48.782;9.162;2022-07-06T02:08:29;2.45;;;2.28;;
25199;SDS011;33094;48.782;9.162;2022-07-06T02:10:55;6.30;;;2.60;;
25199;SDS011;33094;48.782;9.162;2022-07-06T02:13:20;4.47;;;2.65;;
25199;SDS011;33094;48.782;9.162;2022-07-06T02:15:46;3.75;;;2.65;;
25199;SDS011;33094;48.782;9.162;2022-07-06T02:18:12;7.65;;;3.58;;
25199;SDS011;33094;48.782;9.162;2022-07-06T02:20:37;5.15;;;2.55;;
25199;SDS011;33094;48.782;9.162;2022-07-06T02:23:03;7.35;;;2.60;;
25199;SDS011;33094;48.782;9.162;2022-07-06T02:25:28;3.75;;;2.80;;
25199;SDS011;33094;48.782;9.162;2022-07-06T02:27:54;3.97;;;2.55;;
25199;SDS011;33094;48.782;9.162;2022-07-06T02:30:20;7.32;;;2.95;;
25199;SDS011;33094;48.782;9.162;2022-07-06T02:32:46;3.08;;;2.63;;
25199;SDS011;33094;48.782;9.162;2022-07-06T02:35:12;2.55;;;2.35;;
25199;SDS011;33094;48.782;9.162;2022-07-06T02:37:37;8.18;;;3.08;;
25199;SDS011;33094;48.782;9.162;2022-07-06T02:40:04;9.80;;;3.25;;
25199;SDS011;33094;48.782;9.162;2022-07-06T02:42:30;8.98;;;3.00;;
25199;SDS011;33094;48.782;9.162;2022-07-06T02:44:55;6.93;;;2.53;;
25199;SDS011;33094;48.782;9.162;2022-07-06T02:47:21;2.90;;;2.47;;
25199;SDS011;33094;48.782;9.162;2022-07-06T02:49:47;4.55;;;2.80;;
25199;SDS011;33094;48.782;9.162;2022-07-06T02:52:13;2.87;;;2.20;;
25199;SDS011;33094;48.782;9.162;2022-07-06T02:54:39;3.47;;;2.95;;
25199;SDS011;33094;48.782;9.162;2022-07-06T02:57:04;3.70;;;3.05;;
25199;SDS011;33094;48.782;9.162;2022-07-06T02:59:30;5.07;;;3.03;;
25199;SDS011;33094;48.782;9.162;2022-07-06T03:01:55;9.15;;;2.95;;
25199;SDS011;33094;48.782;9.162;2022-07-06T03:04:21;6.78;;;3.00;;
25199;SDS011;33094;48.782;9.162;2022-07-06T03:06:47;6.35;;;3.55;;
25199;SDS011;33094;48.782;9.162;2022-07-06T03:09:12;8.38;;;2.80;;
25199;SDS011;33094;48.782;9.162;2022-07-06T03:11:38;9.43;;;2.90;;
25199;SDS011;33094;48.782;9.162;2022-07-06T03:14:04;7.30;;;2.78;;
25199;SDS011;33094;48.782;9.162;2022-07-06T03:16:30;4.82;;;2.92;;
25199;SDS011;33094;48.782;9.162;2022-07-06T03:18:56;9.20;;;3.43;;
25199;SDS011;33094;48.782;9.162;2022-07-06T03:21:23;6.38;;;3.30;;
25199;SDS011;33094;48.782;9.162;2022-07-06T03:23:51;4.50;;;3.15;;
25199;SDS011;33094;48.782;9.162;2022-07-06T03:26:17;6.13;;;3.08;;
25199;SDS011;33094;48.782;9.162;2022-07-06T03:28:42;7.65;;;3.28;;
25199;SDS011;33094;48.782;9.162;2022-07-06T03:31:08;11.23;;;3.45;;
25199;SDS011;33094;48.782;9.162;2022-07-06T03:33:34;3.65;;;3.13;;
25199;SDS011;33094;48.782;9.162;2022-07-06T03:35:59;4.57;;;3.22;;
25199;SDS011;33094;48.782;9.162;2022-07-06T03:38:25;5.63;;;3.13;;
25199;SDS011;33094;48.782;9.162;2022-07-06T03:40:51;5.93;;;3.20;;
25199;SDS011;33094;48.782;9.162;2022-07-06T03:43:17;10.40;;;3.20;;
25199;SDS011;33094;48.782;9.162;2022-07-06T03:45:42;5.00;;;3.28;;
25199;SDS011;33094;48.782;9.162;2022-07-06T03:48:08;3.88;;;3.13;;
25199;SDS011;33094;48.782;9.162;2022-07-06T03:50:34;5.38;;;3.53;;
25199;SDS011;33094;48.782;9.162;2022-07-06T03:53:00;5.28;;;3.33;;
25199;SDS011;33094;48.782;9.162;2022-07-06T03:55:26;6.53;;;3.77;;
25199;SDS011;33094;48.782;9.162;2022-07-06T03:57:52;6.40;;;3.28;;
25199;SDS011;33094;48.782;9.162;2022-07-06T04:00:17;6.40;;;3.60;;
25199;SDS011;33094;48.782;9.162;2022-07-06T04:02:43;4.53;;;3.03;;
25199;SDS011;33094;48.782;9.162;2022-07-06T04:05:09;4.30;;;2.85;;
25199;SDS011;33094;48.782;9.162;2022-07-06T04:07:34;5.82;;;3.35;;
25199;SDS011;33094;48.782;9.162;2022-07-06T04:10:00;4.50;;;3.15;;
25199;SDS011;33094;48.782;9.162;2022-07-06T04:12:26;4.28;;;3.45;;
25199;SDS011;33094;48.782;9.162;2022-07-06T04:14:52;7.60;;;3.88;;
25199;SDS011;33094;48.782;9.162;2022-07-06T04:17:20;5.18;;;3.58;;
25199;SDS011;33094;48.782;9.162;2022-07-06T04:20:04;7.93;;;3.63;;
25199;SDS011;33094;48.782;9.162;2022-07-06T04:22:30;4.47;;;3.30;;
25199;SDS011;33094;48.782;9.162;2022-07-06T04:24:56;6.05;;;3.42;;
25199;SDS011;33094;48.782;9.162;2022-07-06T04:27:21;7.22;;;3.60;;
25199;SDS011;33094;48.782;9.162;2022-07-06T04:29:47;4.85;;;3.75;;
25199;SDS011;33094;48.782;9.162;2022-07-06T04:32:13;6.63;;;3.75;;
25199;SDS011;33094;48.782;9.162;2022-07-06T04:34:38;7.60;;;4.38;;
25199;SDS011;33094;48.782;9.162;2022-07-06T04:37:04;5.45;;;4.45;;
25199;SDS011;33094;48.782;9.162;2022-07-06T04:39:29;5.30;;;4.18;;
25199;SDS011;33094;48.782;9.162;2022-07-06T04:44:22;9.67;;;4.80;;
25199;SDS011;33094;48.782;9.162;2022-07-06T04:46:47;7.45;;;4.50;;
25199;SDS011;33094;48.782;9.162;2022-07-06T04:49:13;7.93;;;4.00;;
25199;SDS011;33094;48.782;9.162;2022-07-06T04:51:39;10.82;;;5.07;;
25199;SDS011;33094;48.782;9.162;2022-07-06T04:54:04;7.93;;;4.72;;
25199;SDS011;33094;48.782;9.162;2022-07-06T04:56:30;5.82;;;4.45;;
25199;SDS011;33094;48.782;9.162;2022-07-06T04:58:56;6.82;;;4.47;;
25199;SDS011;33094;48.782;9.162;2022-07-06T05:01:21;13.60;;;5.18;;
25199;SDS011;33094;48.782;9.162;2022-07-06T05:03:47;6.25;;;4.88;;
25199;SDS011;33094;48.782;9.162;2022-07-06T05:06:13;11.20;;;4.70;;
25199;SDS011;33094;48.782;9.162;2022-07-06T05:08:38;7.82;;;5.15;;
25199;SDS011;33094;48.782;9.162;2022-07-06T05:11:04;5.55;;;4.38;;
25199;SDS011;33094;48.782;9.162;2022-07-06T05:13:29;10.15;;;4.35;;
25199;SDS011;33094;48.782;9.162;2022-07-06T05:15:55;8.52;;;5.28;;
25199;SDS011;33094;48.782;9.162;2022-07-06T05:18:21;6.75;;;4.05;;
25199;SDS011;33094;48.782;9.162;2022-07-06T05:20:46;6.90;;;4.88;;
25199;SDS011;33094;48.782;9.162;2022-07-06T05:23:12;17.05;;;4.85;;
25199;SDS011;33094;48.782;9.162;2022-07-06T05:25:38;6.10;;;5.30;;
25199;SDS011;33094;48.782;9.162;2022-07-06T05:28:04;8.93;;;5.05;;
25199;SDS011;33094;48.782;9.162;2022-07-06T05:30:29;8.55;;;4.68;;
25199;SDS011;33094;48.782;9.162;2022-07-06T05:32:55;10.80;;;4.95;;
25199;SDS011;33094;48.782;9.162;2022-07-06T05:35:23;6.03;;;4.10;;
25199;SDS011;33094;48.782;9.162;2022-07-06T05:37:53;7.43;;;4.32;;
25199;SDS011;33094;48.782;9.162;2022-07-06T05:40:19;9.55;;;4.88;;
25199;SDS011;33094;48.782;9.162;2022-07-06T05:42:45;8.50;;;4.25;;
25199;SDS011;33094;48.782;9.162;2022-07-06T05:45:10;7.78;;;4.10;;
25199;SDS011;33094;48.782;9.162;2022-07-06T05:47:39;8.18;;;4.45;;
25199;SDS011;33094;48.782;9.162;2022-07-06T05:50:23;8.30;;;4.18;;
25199;SDS011;33094;48.782;9.162;2022-07-06T05:52:56;9.15;;;4.20;;
25199;SDS011;33094;48.782;9.162;2022-07-06T05:55:26;5.32;;;4.10;;
25199;SDS011;33094;48.782;9.162;2022-07-06T05:57:52;7.10;;;4.40;;
25199;SDS011;33094;48.782;9.162;2022-07-06T06:00:19;6.40;;;4.60;;
25199;SDS011;33094;48.782;9.162;2022-07-06T06:02:46;6.50;;;4.40;;
25199;SDS011;33094;48.782;9.162;2022-07-06T06:05:13;7.60;;;3.63;;
25199;SDS011;33094;48.782;9.162;2022-07-06T06:07:39;5.28;;;3.10;;
25199;SDS011;33094;48.782;9.162;2022-07-06T06:10:06;8.40;;;4.27;;
25199;SDS011;33094;48.782;9.162;2022-07-06T06:12:34;6.53;;;3.38;;
25199;SDS011;33094;48.782;9.162;2022-07-06T06:15:00;4.90;;;3.63;;
25199;SDS011;33094;48.782;9.162;2022-07-06T06:17:26;5.47;;;3.75;;
25199;SDS011;33094;48.782;9.162;2022-07-06T06:19:52;4.93;;;3.10;;
25199;SDS011;33094;48.782;9.162;2022-07-06T06:22:18;8.03;;;3.53;;
25199;SDS011;33094;48.782;9.162;2022-07-06T06:24:43;4.93;;;3.17;;
25199;SDS011;33094;48.782;9.162;2022-07-06T06:27:09;6.13;;;3.07;;
25199;SDS011;33094;48.782;9.162;2022-07-06T06:29:35;4.10;;;3.43;;
25199;SDS011;33094;48.782;9.162;2022-07-06T06:32:00;8.77;;;3.13;;
25199;SDS011;33094;48.782;9.162;2022-07-06T06:34:26;6.78;;;3.45;;
25199;SDS011;33094;48.782;9.162;2022-07-06T06:36:52;8.50;;;4.00;;
25199;SDS011;33094;48.782;9.162;2022-07-06T06:39:17;7.50;;;3.78;;
25199;SDS011;33094;48.782;9.162;2022-07-06T06:41:43;6.68;;;3.45;;
25199;SDS011;33094;48.782;9.162;2022-07-06T06:44:09;6.90;;;3.45;;
25199;SDS011;33094;48.782;9.162;2022-07-06T06:46:34;4.65;;;3.25;;
25199;SDS011;33094;48.782;9.162;2022-07-06T06:49:00;3.83;;;3.10;;
25199;SDS011;33094;48.782;9.162;2022-07-06T06:51:26;5.95;;;3.65;;
25199;SDS011;33094;48.782;9.162;2022-07-06T06:53:51;8.60;;;3.65;;
25199;SDS011;33094;48.782;9.162;2022-07-06T06:56:17;8.57;;;3.43;;
25199;SDS011;33094;48.782;9.162;2022-07-06T06:58:43;4.90;;;3.85;;
25199;SDS011;33094;48.782;9.162;2022-07-06T07:01:08;10.13;;;4.10;;
25199;SDS011;33094;48.782;9.162;2022-07-06T07:03:34;4.70;;;3.97;;
25199;SDS011;33094;48.782;9.162;2022-07-06T07:06:00;6.78;;;3.88;;
25199;SDS011;33094;48.782;9.162;2022-07-06T07:08:25;4.60;;;3.63;;
25199;SDS011;33094;48.782;9.162;2022-07-06T07:10:51;9.30;;;3.78;;
25199;SDS011;33094;48.782;9.162;2022-07-06T07:13:17;5.93;;;3.57;;
25199;SDS011;33094;48.782;9.162;2022-07-06T07:15:43;4.43;;;3.30;;
25199;SDS011;33094;48.782;9.162;2022-07-06T07:18:08;12.13;;;3.60;;
25199;SDS011;33094;48.782;9.162;2022-07-06T07:20:34;9.43;;;3.90;;
25199;SDS011;33094;48.782;9.162;2022-07-06T07:23:00;4.00;;;2.97;;
25199;SDS011;33094;48.782;9.162;2022-07-06T07:25:26;7.60;;;3.80;;
25199;SDS011;33094;48.782;9.162;2022-07-06T07:27:52;9.02;;;3.83;;
25199;SDS011;33094;48.782;9.162;2022-07-06T07:30:18;6.72;;;3.75;;
25199;SDS011;33094;48.782;9.162;2022-07-06T07:32:44;5.87;;;3.53;;
25199;SDS011;33094;48.782;9.162;2022-07-06T07:35:09;3.70;;;3.40;;
25199;SDS011;33094;48.782;9.162;2022-07-06T07:37:35;6.60;;;3.70;;
25199;SDS011;33094;48.782;9.162;2022-07-06T07:40:01;8.23;;;3.55;;
25199;SDS011;33094;48.782;9.162;2022-07-06T07:42:27;9.13;;;3.47;;
25199;SDS011;33094;48.782;9.162;2022-07-06T07:44:53;4.77;;;3.33;;
25199;SDS011;33094;48.782;9.162;2022-07-06T07:47:18;5.78;;;3.25;;
25199;SDS011;33094;48.782;9.162;2022-07-06T07:49:44;5.43;;;3.17;;
25199;SDS011;33094;48.782;9.162;2022-07-06T07:52:10;7.82;;;3.55;;
25199;SDS011;33094;48.782;9.162;2022-07-06T07:57:11;6.63;;;3.55;;
25199;SDS011;33094;48.782;9.162;2022-07-06T07:59:36;8.90;;;3.75;;
25199;SDS011;33094;48.782;9.162;2022-07-06T08:02:02;8.77;;;3.30;;
25199;SDS011;33094;48.782;9.162;2022-07-06T08:04:28;6.57;;;3.50;;
25199;SDS011;33094;48.782;9.162;2022-07-06T08:06:53;4.03;;;3.00;;
25199;SDS011;33094;48.782;9.162;2022-07-06T08:09:19;7.90;;;3.70;;
25199;SDS011;33094;48.782;9.162;2022-07-06T08:11:45;7.70;;;3.30;;
25199;SDS011;33094;48.782;9.162;2022-07-06T08:14:10;8.45;;;2.92;;
25199;SDS011;33094;48.782;9.162;2022-07-06T08:16:36;9.10;;;3.60;;
25199;SDS011;33094;48.782;9.162;2022-07-06T08:19:02;4.53;;;3.57;;
25199;SDS011;33094;48.782;9.162;2022-07-06T08:21:27;7.13;;;4.20;;
25199;SDS011;33094;48.782;9.162;2022-07-06T08:23:53;15.50;;;4.03;;
25199;SDS011;33094;48.782;9.162;2022-07-06T08:26:20;6.03;;;3.95;;
25199;SDS011;33094;48.782;9.162;2022-07-06T08:28:47;6.03;;;3.65;;
25199;SDS011;33094;48.782;9.162;2022-07-06T08:31:12;3.90;;;3.10;;
25199;SDS011;33094;48.782;9.162;2022-07-06T08:33:38;9.60;;;3.40;;
25199;SDS011;33094;48.782;9.162;2022-07-06T08:36:04;8.10;;;3.83;;
25199;SDS011;33094;48.782;9.162;2022-07-06T08:38:30;7.80;;;3.38;;
25199;SDS011;33094;48.782;9.162;2022-07-06T08:40:55;3.47;;;2.43;;
25199;SDS011;33094;48.782;9.162;2022-07-06T08:43:22;4.55;;;3.28;;
25199;SDS011;33094;48.782;9.162;2022-07-06T08:45:47;5.97;;;3.05;;
25199;SDS011;33094;48.782;9.162;2022-07-06T08:48:16;8.23;;;2.78;;
25199;SDS011;33094;48.782;9.162;2022-07-06T08:50:44;4.75;;;2.95;;
25199;SDS011;33094;48.782;9.162;2022-07-06T08:53:15;4.80;;;2.47;;
25199;SDS011;33094;48.782;9.162;2022-07-06T08:55:43;6.18;;;2.72;;
25199;SDS011;33094;48.782;9.162;2022-07-06T08:58:09;3.47;;;2.70;;
25199;SDS011;33094;48.782;9.162;2022-07-06T09:00:34;7.55;;;2.63;;
25199;SDS011;33094;48.782;9.162;2022-07-06T09:03:01;4.43;;;3.00;;
25199;SDS011;33094;48.782;9.162;2022-07-06T09:05:27;6.57;;;3.25;;
25199;SDS011;33094;48.782;9.162;2022-07-06T09:07:54;3.42;;;2.75;;
25199;SDS011;33094;48.782;9.162;2022-07-06T09:10:21;5.13;;;2.53;;
25199;SDS011;33094;48.782;9.162;2022-07-06T09:17:39;8.33;;;2.90;;
25199;SDS011;33094;48.782;9.162;2022-07-06T09:20:08;8.00;;;2.70;;
25199;SDS011;33094;48.782;9.162;2022-07-06T09:22:35;5.30;;;3.08;;
25199;SDS011;33094;48.782;9.162;2022-07-06T09:27:31;4.75;;;3.10;;
25199;SDS011;33094;48.782;9.162;2022-07-06T09:30:03;6.28;;;2.53;;
25199;SDS011;33094;48.782;9.162;2022-07-06T09:32:29;6.63;;;2.50;;
25199;SDS011;33094;48.782;9.162;2022-07-06T09:34:55;4.70;;;2.47;;
25199;SDS011;33094;48.782;9.162;2022-07-06T09:37:21;7.05;;;2.60;;
25199;SDS011;33094;48.782;9.162;2022-07-06T09:39:50;10.45;;;2.53;;
25199;SDS011;33094;48.782;9.162;2022-07-06T09:42:16;8.10;;;3.17;;
25199;SDS011;33094;48.782;9.162;2022-07-06T09:44:48;9.27;;;3.60;;
25199;SDS011;33094;48.782;9.162;2022-07-06T09:47:14;3.22;;;2.78;;
25199;SDS011;33094;48.782;9.162;2022-07-06T09:49:40;3.90;;;2.63;;
25199;SDS011;33094;48.782;9.162;2022-07-06T09:52:07;5.33;;;3.30;;
25199;SDS011;33094;48.782;9.162;2022-07-06T09:54:34;7.07;;;2.45;;
25199;SDS011;33094;48.782;9.162;2022-07-06T09:57:00;6.65;;;2.70;;
25199;SDS011;33094;48.782;9.162;2022-07-06T09:59:28;7.72;;;2.67;;
25199;SDS011;33094;48.782;9.162;2022-07-06T10:01:55;5.45;;;2.53;;
25199;SDS011;33094;48.782;9.162;2022-07-06T10:04:22;6.55;;;2.47;;
25199;SDS011;33094;48.782;9.162;2022-07-06T10:06:49;6.00;;;2.45;;
25199;SDS011;33094;48.782;9.162;2022-07-06T10:09:16;4.15;;;2.75;;
25199;SDS011;33094;48.782;9.162;2022-07-06T10:11:45;6.78;;;3.05;;
25199;SDS011;33094;48.782;9.162;2022-07-06T10:14:23;7.03;;;3.25;;
25199;SDS011;33094;48.782;9.162;2022-07-06T10:16:51;10.07;;;3.13;;
25199;SDS011;33094;48.782;9.162;2022-07-06T10:19:19;5.03;;;2.58;;
25199;SDS011;33094;48.782;9.162;2022-07-06T10:21:46;3.45;;;2.22;;
25199;SDS011;33094;48.782;9.162;2022-07-06T10:24:12;5.07;;;2.25;;
25199;SDS011;33094;48.782;9.162;2022-07-06T10:26:39;5.43;;;2.25;;
25199;SDS011;33094;48.782;9.162;2022-07-06T10:29:06;7.05;;;2.35;;
25199;SDS011;33094;48.782;9.162;2022-07-06T10:31:33;4.28;;;2.15;;
25199;SDS011;33094;48.782;9.162;2022-07-06T10:34:03;3.63;;;2.80;;
25199;SDS011;33094;48.782;9.162;2022-07-06T10:36:31;6.30;;;2.90;;
25199;SDS011;33094;48.782;9.162;2022-07-06T10:39:02;6.18;;;3.15;;
25199;SDS011;33094;48.782;9.162;2022-07-06T10:41:48;4.57;;;2.63;;
25199;SDS011;33094;48.782;9.162;2022-07-06T10:44:18;9.57;;;2.40;;
25199;SDS011;33094;48.782;9.162;2022-07-06T10:46:49;4.53;;;2.90;;
25199;SDS011;33094;48.782;9.162;2022-07-06T10:49:17;6.30;;;2.90;;
25199;SDS011;33094;48.782;9.162;2022-07-06T10:51:43;3.50;;;2.95;;
25199;SDS011;33094;48.782;9.162;2022-07-06T10:54:08;5.67;;;2.60;;
25199;SDS011;33094;48.782;9.162;2022-07-06T10:56:38;7.68;;;3.13;;
25199;SDS011;33094;48.782;9.162;2022-07-06T11:01:40;6.00;;;3.15;;
25199;SDS011;33094;48.782;9.162;2022-07-06T11:04:08;8.70;;;3.17;;
25199;SDS011;33094;48.782;9.162;2022-07-06T11:06:35;3.80;;;2.63;;
25199;SDS011;33094;48.782;9.162;2022-07-06T11:09:09;7.57;;;2.70;;
25199;SDS011;33094;48.782;9.162;2022-07-06T11:14:03;7.60;;;3.60;;
25199;SDS011;33094;48.782;9.162;2022-07-06T11:16:37;4.90;;;2.70;;
25199;SDS011;33094;48.782;9.162;2022-07-06T11:19:19;9.48;;;2.72;;
25199;SDS011;33094;48.782;9.162;2022-07-06T11:21:50;7.35;;;2.78;;
25199;SDS011;33094;48.782;9.162;2022-07-06T11:24:23;10.10;;;3.10;;
25199;SDS011;33094;48.782;9.162;2022-07-06T11:26:51;8.98;;;3.08;;
25199;SDS011;33094;48.782;9.162;2022-07-06T11:29:18;5.28;;;3.08;;
25199;SDS011;33094;48.782;9.162;2022-07-06T11:31:48;9.00;;;2.70;;
25199;SDS011;33094;48.782;9.162;2022-07-06T11:34:27;3.60;;;2.78;;
25199;SDS011;33094;48.782;9.162;2022-07-06T11:36:55;5.28;;;3.00;;
25199;SDS011;33094;48.782;9.162;2022-07-06T11:39:40;4.93;;;3.10;;
25199;SDS011;33094;48.782;9.162;2022-07-06T11:42:11;4.80;;;2.90;;
25199;SDS011;33094;48.782;9.162;2022-07-06T11:44:38;7.53;;;2.95;;
25199;SDS011;33094;48.782;9.162;2022-07-06T11:49:32;6.03;;;2.60;;
25199;SDS011;33094;48.782;9.162;2022-07-06T11:51:59;4.43;;;2.95;;
25199;SDS011;33094;48.782;9.162;2022-07-06T11:54:29;5.68;;;3.30;;
25199;SDS011;33094;48.782;9.162;2022-07-06T11:56:58;6.32;;;3.67;;
25199;SDS011;33094;48.782;9.162;2022-07-06T12:04:36;10.77;;;3.33;;
25199;SDS011;33094;48.782;9.162;2022-07-06T12:07:07;7.90;;;3.47;;
25199;SDS011;33094;48.782;9.162;2022-07-06T12:09:37;8.60;;;3.92;;
25199;SDS011;33094;48.782;9.162;2022-07-06T12:12:04;5.55;;;3.13;;
25199;SDS011;33094;48.782;9.162;2022-07-06T12:14:31;5.20;;;2.92;;
25199;SDS011;33094;48.782;9.162;2022-07-06T12:19:31;7.15;;;3.10;;
25199;SDS011;33094;48.782;9.162;2022-07-06T12:21:57;3.92;;;2.95;;
25199;SDS011;33094;48.782;9.162;2022-07-06T12:24:24;4.15;;;3.22;;
25199;SDS011;33094;48.782;9.162;2022-07-06T12:26:51;7.55;;;3.63;;
25199;SDS011;33094;48.782;9.162;2022-07-06T12:29:18;5.78;;;3.85;;
25199;SDS011;33094;48.782;9.162;2022-07-06T12:31:53;7.95;;;3.58;;
25199;SDS011;33094;48.782;9.162;2022-07-06T12:34:21;4.45;;;3.85;;
25199;SDS011;33094;48.782;9.162;2022-07-06T12:36:52;4.80;;;3.22;;
25199;SDS011;33094;48.782;9.162;2022-07-06T12:39:20;4.82;;;3.20;;
25199;SDS011;33094;48.782;9.162;2022-07-06T12:41:49;3.88;;;3.38;;
25199;SDS011;33094;48.782;9.162;2022-07-06T12:44:21;7.30;;;3.28;;
25199;SDS011;33094;48.782;9.162;2022-07-06T12:46:48;5.30;;;3.88;;
25199;SDS011;33094;48.782;9.162;2022-07-06T12:49:16;4.18;;;2.80;;
25199;SDS011;33094;48.782;9.162;2022-07-06T12:51:52;6.85;;;2.97;;
25199;SDS011;33094;48.782;9.162;2022-07-06T12:54:20;3.55;;;2.63;;
25199;SDS011;33094;48.782;9.162;2022-07-06T12:59:32;8.45;;;3.13;;
25199;SDS011;33094;48.782;9.162;2022-07-06T13:01:59;10.57;;;3.20;;
25199;SDS011;33094;48.782;9.162;2022-07-06T13:04:26;6.03;;;2.80;;
25199;SDS011;33094;48.782;9.162;2022-07-06T13:06:53;7.05;;;2.40;;
25199;SDS011;33094;48.782;9.162;2022-07-06T13:09:19;5.32;;;2.63;;
25199;SDS011;33094;48.782;9.162;2022-07-06T13:11:46;5.82;;;2.80;;
25199;SDS011;33094;48.782;9.162;2022-07-06T13:14:16;7.53;;;2.85;;
25199;SDS011;33094;48.782;9.162;2022-07-06T13:16:43;10.18;;;2.72;;
25199;SDS011;33094;48.782;9.162;2022-07-06T13:19:10;11.30;;;2.85;;
25199;SDS011;33094;48.782;9.162;2022-07-06T13:21:36;3.97;;;2.30;;
25199;SDS011;33094;48.782;9.162;2022-07-06T13:24:02;7.43;;;2.50;;
25199;SDS011;33094;48.782;9.162;2022-07-06T13:26:28;5.88;;;2.50;;
25199;SDS011;33094;48.782;9.162;2022-07-06T13:28:57;13.30;;;3.08;;
25199;SDS011;33094;48.782;9.162;2022-07-06T13:31:24;4.07;;;2.63;;
25199;SDS011;33094;48.782;9.162;2022-07-06T13:33:49;3.43;;;2.73;;
25199;SDS011;33094;48.782;9.162;2022-07-06T13:36:15;6.03;;;2.67;;
25199;SDS011;33094;48.782;9.162;2022-07-06T13:38:41;8.90;;;2.70;;
25199;SDS011;33094;48.782;9.162;2022-07-06T13:41:06;9.07;;;2.50;;
25199;SDS011;33094;48.782;9.162;2022-07-06T13:43:32;3.87;;;2.70;;
25199;SDS011;33094;48.782;9.162;2022-07-06T13:46:02;4.30;;;3.15;;
25199;SDS011;33094;48.782;9.162;2022-07-06T13:48:32;7.07;;;3.20;;
25199;SDS011;33094;48.782;9.162;2022-07-06T13:50:59;7.60;;;3.38;;
25199;SDS011;33094;48.782;9.162;2022-07-06T13:53:24;7.27;;;3.23;;
25199;SDS011;33094;48.782;9.162;2022-07-06T13:55:50;9.67;;;3.20;;
25199;SDS011;33094;48.782;9.162;2022-07-06T13:58:16;3.55;;;2.70;;
25199;SDS011;33094;48.782;9.162;2022-07-06T14:00:42;8.57;;;2.97;;
25199;SDS011;33094;48.782;9.162;2022-07-06T14:03:08;5.50;;;2.80;;
25199;SDS011;33094;48.782;9.162;2022-07-06T14:05:34;4.60;;;2.80;;
25199;SDS011;33094;48.782;9.162;2022-07-06T14:08:00;3.85;;;2.35;;
25199;SDS011;33094;48.782;9.162;2022-07-06T14:10:26;4.20;;;2.50;;
25199;SDS011;33094;48.782;9.162;2022-07-06T14:12:52;4.57;;;2.97;;
25199;SDS011;33094;48.782;9.162;2022-07-06T14:15:17;3.60;;;2.50;;
25199;SDS011;33094;48.782;9.162;2022-07-06T14:17:43;4.43;;;2.77;;
25199;SDS011;33094;48.782;9.162;2022-07-06T14:20:09;3.87;;;2.67;;
25199;SDS011;33094;48.782;9.162;2022-07-06T14:22:35;2.95;;;1.92;;
25199;SDS011;33094;48.782;9.162;2022-07-06T14:25:00;7.27;;;2.37;;
25199;SDS011;33094;48.782;9.162;2022-07-06T14:27:26;5.30;;;2.67;;
25199;SDS011;33094;48.782;9.162;2022-07-06T14:29:51;2.97;;;2.60;;
25199;SDS011;33094;48.782;9.162;2022-07-06T14:32:17;5.90;;;2.57;;
25199;SDS011;33094;48.782;9.162;2022-07-06T14:34:43;11.37;;;3.37;;
25199;SDS011;33094;48.782;9.162;2022-07-06T14:37:08;9.03;;;2.40;;
25199;SDS011;33094;48.782;9.162;2022-07-06T14:39:34;5.05;;;2.63;;
25199;SDS011;33094;48.782;9.162;2022-07-06T14:42:00;5.07;;;2.73;;
25199;SDS011;33094;48.782;9.162;2022-07-06T14:44:26;2.57;;;2.30;;
25199;SDS011;33094;48.782;9.162;2022-07-06T14:46:52;4.30;;;2.20;;
25199;SDS011;33094;48.782;9.162;2022-07-06T14:49:18;5.25;;;3.28;;
25199;SDS011;33094;48.782;9.162;2022-07-06T14:51:43;5.50;;;2.47;;
25199;SDS011;33094;48.782;9.162;2022-07-06T14:54:09;7.57;;;2.70;;
25199;SDS011;33094;48.782;9.162;2022-07-06T14:56:35;4.27;;;2.57;;
25199;SDS011;33094;48.782;9.162;2022-07-06T14:59:01;2.75;;;2.38;;
25199;SDS011;33094;48.782;9.162;2022-07-06T15:01:27;2.88;;;2.13;;
25199;SDS011;33094;48.782;9.162;2022-07-06T15:03:53;6.23;;;2.70;;
25199;SDS011;33094;48.782;9.162;2022-07-06T15:06:18;6.90;;;2.17;;
25199;SDS011;33094;48.782;9.162;2022-07-06T15:08:44;2.23;;;2.03;;
25199;SDS011;33094;48.782;9.162;2022-07-06T15:11:11;3.63;;;2.22;;
25199;SDS011;33094;48.782;9.162;2022-07-06T15:13:37;3.00;;;2.20;;
25199;SDS011;33094;48.782;9.162;2022-07-06T15:16:03;4.40;;;2.33;;
25199;SDS011;33094;48.782;9.162;2022-07-06T15:18:29;3.58;;;2.30;;
25199;SDS011;33094;48.782;9.162;2022-07-06T15:20:55;10.07;;;2.80;;